Time;durP1;ratioP1;P1;durP2;ratioP2;P2;SDS_P1;SDS_P2;PMS_P1;PMS_P2;Temp;Humidity;BMP_temperature;BMP_pressure;BME280_temperature;BME280_humidity;BME280_pressure;Samples;Min_cycle;Max_cycle;Signal;HPM_P1;HPM_P2
2022/08/30 00:01:12;;;;;;;1.10;1.00;;;;;;;;;;5078161;28;20307;-71
2022/08/30 00:03:39;;;;;;;1.90;1.40;;;;;;;;;;5077954;28;20219;-72
2022/08/30 00:06:08;;;;;;;1.60;1.50;;;;;;;;;;5081163;28;20246;-71
2022/08/30 00:08:36;;;;;;;1.90;1.53;;;;;;;;;;5075474;28;20279;-71
2022/08/30 00:11:04;;;;;;;1.70;1.40;;;;;;;;;;5067836;28;20241;-71
2022/08/30 00:13:35;;;;;;;1.70;1.20;;;;;;;;;;5044137;28;20227;-72
2022/08/30 00:16:05;;;;;;;1.53;1.40;;;;;;;;;;5063250;28;20672;-73
2022/08/30 00:18:32;;;;;;;2.33;1.60;;;;;;;;;;5066195;28;20256;-71
2022/08/30 00:20:57;;;;;;;2.53;1.43;;;;;;;;;;5061929;28;20325;-72
2022/08/30 00:23:26;;;;;;;1.43;1.30;;;;;;;;;;5061220;28;20698;-72
2022/08/30 00:25:51;;;;;;;2.10;1.20;;;;;;;;;;5059523;28;20314;-69
2022/08/30 00:28:17;;;;;;;1.47;1.37;;;;;;;;;;5047998;28;20230;-72
2022/08/30 00:30:43;;;;;;;1.73;1.03;;;;;;;;;;5076353;28;20233;-72
2022/08/30 00:33:11;;;;;;;1.77;1.20;;;;;;;;;;5049106;28;20230;-72
2022/08/30 00:35:38;;;;;;;1.37;1.20;;;;;;;;;;5076007;28;20317;-71
2022/08/30 00:38:07;;;;;;;2.67;1.30;;;;;;;;;;5061836;28;20260;-71
2022/08/30 00:40:33;;;;;;;1.50;1.33;;;;;;;;;;5077246;28;20727;-72
2022/08/30 00:43:01;;;;;;;1.80;1.30;;;;;;;;;;5056334;28;20214;-71
2022/08/30 00:45:29;;;;;;;2.83;1.33;;;;;;;;;;5055463;28;20759;-74
2022/08/30 00:47:59;;;;;;;1.40;1.30;;;;;;;;;;5039570;28;20230;-72
2022/08/30 00:50:28;;;;;;;4.27;1.40;;;;;;;;;;5071670;28;20226;-73
2022/08/30 00:52:56;;;;;;;1.30;1.20;;;;;;;;;;5038246;28;20222;-72
2022/08/30 00:55:22;;;;;;;1.40;1.30;;;;;;;;;;5023000;28;20246;-73
2022/08/30 00:57:54;;;;;;;2.73;1.63;;;;;;;;;;5064114;28;20259;-71
2022/08/30 01:00:21;;;;;;;1.33;1.10;;;;;;;;;;5073449;28;20693;-71
2022/08/30 01:02:47;;;;;;;2.40;1.20;;;;;;;;;;5039746;28;20335;-72
2022/08/30 01:05:15;;;;;;;1.73;1.30;;;;;;;;;;5058785;28;20219;-72
2022/08/30 01:07:43;;;;;;;1.37;1.10;;;;;;;;;;5061865;28;20235;-72
2022/08/30 01:10:12;;;;;;;2.57;1.20;;;;;;;;;;5080160;28;20253;-73
2022/08/30 01:12:38;;;;;;;1.30;1.20;;;;;;;;;;5052687;28;20241;-73
2022/08/30 01:15:04;;;;;;;1.83;1.37;;;;;;;;;;5041909;28;21057;-70
2022/08/30 01:17:30;;;;;;;1.63;1.23;;;;;;;;;;5047734;28;20290;-72
2022/08/30 01:20:10;;;;;;;2.20;1.20;;;;;;;;;;5056116;28;20386;-72
2022/08/30 01:22:41;;;;;;;1.07;1.07;;;;;;;;;;5045621;28;20637;-72
2022/08/30 01:25:17;;;;;;;1.40;1.30;;;;;;;;;;5067295;28;20312;-72
2022/08/30 01:28:07;;;;;;;1.53;1.00;;;;;;;;;;5074606;28;20237;-73
2022/08/30 01:30:37;;;;;;;1.37;1.27;;;;;;;;;;5081148;28;20234;-70
2022/08/30 01:33:06;;;;;;;2.63;1.10;;;;;;;;;;5057201;28;20602;-73
2022/08/30 01:35:52;;;;;;;1.43;1.10;;;;;;;;;;5063828;28;20693;-74
2022/08/30 01:38:19;;;;;;;1.03;1.03;;;;;;;;;;5054171;28;20246;-72
2022/08/30 01:40:50;;;;;;;1.30;1.20;;;;;;;;;;5058474;28;20218;-71
2022/08/30 01:43:16;;;;;;;1.60;1.10;;;;;;;;;;5046403;28;20222;-70
2022/08/30 01:45:46;;;;;;;1.60;1.10;;;;;;;;;;5061317;28;20230;-73
2022/08/30 01:48:11;;;;;;;1.57;1.20;;;;;;;;;;5078706;28;20225;-72
2022/08/30 01:50:40;;;;;;;1.57;1.40;;;;;;;;;;5079273;28;20572;-72
2022/08/30 01:53:08;;;;;;;1.43;1.33;;;;;;;;;;5074289;28;20218;-72
2022/08/30 01:55:34;;;;;;;1.70;1.20;;;;;;;;;;5050430;28;20221;-71
2022/08/30 01:57:59;;;;;;;1.43;1.13;;;;;;;;;;5079249;28;20704;-73
2022/08/30 02:00:27;;;;;;;1.53;1.20;;;;;;;;;;5064434;28;20714;-71
2022/08/30 02:02:54;;;;;;;1.30;1.20;;;;;;;;;;5048927;28;20643;-73
2022/08/30 02:05:19;;;;;;;1.10;1.10;;;;;;;;;;5046916;28;20210;-70
2022/08/30 02:07:47;;;;;;;1.37;1.27;;;;;;;;;;5076009;28;20325;-71
2022/08/30 02:10:16;;;;;;;1.83;1.20;;;;;;;;;;5076757;28;20218;-73
2022/08/30 02:12:41;;;;;;;1.30;1.17;;;;;;;;;;5073763;28;20226;-70
2022/08/30 02:15:09;;;;;;;1.20;1.10;;;;;;;;;;5056513;28;20317;-72
2022/08/30 02:17:34;;;;;;;1.17;1.13;;;;;;;;;;5062872;28;20357;-73
2022/08/30 02:20:00;;;;;;;1.90;1.40;;;;;;;;;;5062232;28;21022;-72
2022/08/30 02:22:26;;;;;;;1.73;1.27;;;;;;;;;;5074558;28;20226;-71
2022/08/30 02:24:56;;;;;;;1.40;1.30;;;;;;;;;;5071207;28;20269;-71
2022/08/30 02:27:22;;;;;;;1.37;1.13;;;;;;;;;;5060999;28;20319;-72
2022/08/30 02:29:48;;;;;;;1.30;1.10;;;;;;;;;;5030381;28;20215;-72
2022/08/30 02:32:16;;;;;;;1.77;1.43;;;;;;;;;;5041166;28;20223;-72
2022/08/30 02:34:46;;;;;;;1.47;1.17;;;;;;;;;;5028872;28;20223;-72
2022/08/30 02:37:11;;;;;;;1.37;1.17;;;;;;;;;;5068177;28;20246;-72
2022/08/30 02:39:41;;;;;;;1.97;1.20;;;;;;;;;;5062276;28;20219;-71
2022/08/30 02:42:09;;;;;;;1.57;1.10;;;;;;;;;;5037513;28;20700;-72
2022/08/30 02:44:35;;;;;;;1.53;1.10;;;;;;;;;;5071402;28;20256;-71
2022/08/30 02:47:02;;;;;;;3.60;1.10;;;;;;;;;;5056423;28;20280;-72
2022/08/30 02:49:32;;;;;;;1.93;1.17;;;;;;;;;;5056698;28;20642;-71
2022/08/30 02:52:01;;;;;;;1.20;1.00;;;;;;;;;;5065426;28;20267;-71
2022/08/30 02:54:31;;;;;;;1.00;0.90;;;;;;;;;;5089250;28;20311;-72
2022/08/30 02:57:03;;;;;;;1.30;1.13;;;;;;;;;;5057034;28;20221;-72
2022/08/30 02:59:31;;;;;;;1.20;1.10;;;;;;;;;;5081353;28;20352;-71
2022/08/30 03:01:59;;;;;;;1.00;0.90;;;;;;;;;;5043986;28;20214;-71
2022/08/30 03:04:25;;;;;;;2.40;1.03;;;;;;;;;;5080601;28;20644;-71
2022/08/30 03:06:50;;;;;;;1.00;1.00;;;;;;;;;;5077108;28;20215;-71
2022/08/30 03:09:16;;;;;;;1.63;1.20;;;;;;;;;;5078119;28;20237;-72
2022/08/30 03:11:44;;;;;;;1.20;1.10;;;;;;;;;;5083173;28;20252;-71
2022/08/30 03:14:09;;;;;;;1.27;1.17;;;;;;;;;;5083015;28;20329;-72
2022/08/30 03:16:38;;;;;;;0.83;0.83;;;;;;;;;;5078634;28;20696;-71
2022/08/30 03:19:03;;;;;;;1.20;1.10;;;;;;;;;;5077289;28;20225;-71
2022/08/30 03:21:29;;;;;;;1.50;1.20;;;;;;;;;;5096071;28;20221;-71
2022/08/30 03:23:57;;;;;;;1.60;1.40;;;;;;;;;;5077979;28;20222;-72
2022/08/30 03:26:22;;;;;;;1.20;1.10;;;;;;;;;;5045365;28;20222;-71
2022/08/30 03:28:48;;;;;;;1.63;1.07;;;;;;;;;;5074732;28;20219;-72
2022/08/30 03:31:13;;;;;;;1.83;1.53;;;;;;;;;;5075560;28;20229;-72
2022/08/30 03:33:39;;;;;;;2.13;1.33;;;;;;;;;;5065210;28;20275;-73
2022/08/30 03:36:06;;;;;;;1.40;1.30;;;;;;;;;;5051192;28;20230;-71
2022/08/30 03:38:31;;;;;;;1.43;1.33;;;;;;;;;;5043218;28;20607;-71
2022/08/30 03:40:59;;;;;;;1.33;1.23;;;;;;;;;;5066411;28;20752;-72
2022/08/30 03:43:25;;;;;;;2.40;1.70;;;;;;;;;;5076729;28;20228;-72
2022/08/30 03:45:53;;;;;;;2.87;1.63;;;;;;;;;;5079165;28;20229;-71
2022/08/30 03:48:18;;;;;;;1.53;1.30;;;;;;;;;;5050486;28;20225;-72
2022/08/30 03:50:44;;;;;;;1.33;1.07;;;;;;;;;;5050728;28;20790;-72
2022/08/30 03:53:09;;;;;;;1.80;1.50;;;;;;;;;;5060546;28;20219;-71
2022/08/30 03:55:37;;;;;;;1.80;1.40;;;;;;;;;;5077621;28;20249;-71
2022/08/30 03:58:05;;;;;;;1.47;1.10;;;;;;;;;;5068926;28;20676;-71
2022/08/30 04:00:31;;;;;;;1.30;1.08;;;;;;;;;;5077571;28;20279;-71
2022/08/30 04:02:59;;;;;;;1.50;1.40;;;;;;;;;;5074306;28;20210;-71
2022/08/30 04:05:25;;;;;;;1.60;1.50;;;;;;;;;;5085574;28;20267;-71
2022/08/30 04:07:53;;;;;;;1.87;1.20;;;;;;;;;;5075752;28;20221;-71
2022/08/30 04:10:21;;;;;;;1.73;1.10;;;;;;;;;;5081802;28;20230;-71
2022/08/30 04:12:50;;;;;;;2.10;1.47;;;;;;;;;;5066304;28;20849;-71
2022/08/30 04:15:16;;;;;;;1.33;1.20;;;;;;;;;;5063745;28;21122;-71
2022/08/30 04:17:46;;;;;;;2.43;1.70;;;;;;;;;;5045498;28;20223;-71
2022/08/30 04:20:12;;;;;;;2.63;2.23;;;;;;;;;;5059359;28;20226;-71
2022/08/30 04:22:37;;;;;;;3.63;3.00;;;;;;;;;;5057995;28;20268;-71
2022/08/30 04:25:04;;;;;;;2.37;2.20;;;;;;;;;;5065713;28;20230;-70
2022/08/30 04:27:34;;;;;;;3.23;2.77;;;;;;;;;;5073064;28;20925;-72
2022/08/30 04:30:00;;;;;;;3.53;2.80;;;;;;;;;;5067641;28;20225;-71
2022/08/30 04:32:25;;;;;;;2.40;2.20;;;;;;;;;;5053644;28;20223;-69
2022/08/30 04:34:58;;;;;;;1.97;1.80;;;;;;;;;;5061397;28;20248;-69
2022/08/30 04:37:24;;;;;;;2.07;1.50;;;;;;;;;;5056482;28;20297;-72
2022/08/30 04:39:49;;;;;;;1.60;1.50;;;;;;;;;;5056394;28;20245;-71
2022/08/30 04:42:19;;;;;;;2.03;1.67;;;;;;;;;;5061206;28;20754;-73
2022/08/30 04:44:45;;;;;;;1.40;1.30;;;;;;;;;;5050646;28;20797;-72
2022/08/30 04:47:10;;;;;;;1.98;1.40;;;;;;;;;;5076244;28;20217;-71
2022/08/30 04:49:40;;;;;;;2.83;1.55;;;;;;;;;;5073435;28;20226;-71
2022/08/30 04:52:07;;;;;;;1.50;1.40;;;;;;;;;;5060514;28;21048;-71
2022/08/30 04:54:33;;;;;;;1.67;1.37;;;;;;;;;;5075696;28;20305;-71
2022/08/30 04:57:01;;;;;;;1.90;1.60;;;;;;;;;;5064659;28;20218;-72
2022/08/30 04:59:27;;;;;;;1.65;1.38;;;;;;;;;;5076743;28;20223;-72
2022/08/30 05:01:55;;;;;;;1.60;1.50;;;;;;;;;;5044409;28;20230;-71
2022/08/30 05:04:23;;;;;;;5.32;1.70;;;;;;;;;;5074894;28;20457;-71
2022/08/30 05:06:49;;;;;;;3.17;1.67;;;;;;;;;;5076695;28;20241;-71
2022/08/30 05:09:14;;;;;;;2.05;1.70;;;;;;;;;;5055257;28;20797;-73
2022/08/30 05:11:42;;;;;;;1.92;1.73;;;;;;;;;;5060348;28;20223;-71
2022/08/30 05:14:10;;;;;;;4.57;2.13;;;;;;;;;;5054025;28;20711;-70
2022/08/30 05:16:36;;;;;;;2.20;1.70;;;;;;;;;;5056566;28;20230;-73
2022/08/30 05:19:01;;;;;;;1.92;1.75;;;;;;;;;;5057745;28;20267;-71
2022/08/30 05:21:30;;;;;;;1.45;1.35;;;;;;;;;;5047795;28;20286;-73
2022/08/30 05:24:00;;;;;;;2.08;1.90;;;;;;;;;;5037140;28;20252;-73
2022/08/30 05:26:30;;;;;;;1.70;1.60;;;;;;;;;;5064771;28;21306;-71
2022/08/30 05:28:56;;;;;;;4.45;2.13;;;;;;;;;;5044293;28;20369;-72
2022/08/30 05:31:25;;;;;;;4.35;2.15;;;;;;;;;;5070612;28;20226;-71
2022/08/30 05:33:51;;;;;;;3.20;1.73;;;;;;;;;;5072892;28;20223;-71
2022/08/30 05:36:18;;;;;;;2.60;1.77;;;;;;;;;;5057253;28;20283;-71
2022/08/30 05:38:43;;;;;;;2.55;1.90;;;;;;;;;;5045129;28;20218;-72
2022/08/30 05:41:09;;;;;;;5.47;2.00;;;;;;;;;;5076203;28;20260;-73
2022/08/30 05:43:35;;;;;;;2.78;2.30;;;;;;;;;;5058364;28;20230;-71
2022/08/30 05:46:05;;;;;;;2.22;2.00;;;;;;;;;;5044702;28;20636;-72
2022/08/30 05:48:31;;;;;;;2.75;1.83;;;;;;;;;;5055995;28;20227;-72
2022/08/30 05:51:13;;;;;;;2.70;2.08;;;;;;;;;;5058541;28;20685;-71
2022/08/30 05:53:39;;;;;;;2.45;1.92;;;;;;;;;;5028447;28;20211;-72
2022/08/30 05:56:07;;;;;;;3.38;2.10;;;;;;;;;;5028620;28;20344;-73
2022/08/30 05:58:33;;;;;;;2.20;2.00;;;;;;;;;;5049208;28;20226;-72
2022/08/30 06:01:07;;;;;;;2.63;2.17;;;;;;;;;;5074175;28;20302;-74
2022/08/30 06:03:33;;;;;;;4.45;1.80;;;;;;;;;;5044500;28;20329;-71
2022/08/30 06:05:59;;;;;;;2.53;2.03;;;;;;;;;;5045429;28;20219;-72
2022/08/30 06:08:25;;;;;;;2.97;1.95;;;;;;;;;;5044045;28;20223;-72
2022/08/30 06:10:53;;;;;;;1.98;1.88;;;;;;;;;;5064133;28;20257;-72
2022/08/30 06:13:18;;;;;;;2.20;2.05;;;;;;;;;;5055286;28;20242;-73
2022/08/30 06:15:47;;;;;;;4.38;1.77;;;;;;;;;;5053449;28;20230;-73
2022/08/30 06:18:12;;;;;;;2.53;2.10;;;;;;;;;;5055320;28;20210;-74
2022/08/30 06:20:47;;;;;;;4.78;2.03;;;;;;;;;;5081711;28;20214;-74
2022/08/30 06:23:13;;;;;;;1.80;1.70;;;;;;;;;;5045088;28;20699;-73
2022/08/30 06:25:39;;;;;;;1.70;1.60;;;;;;;;;;5049604;28;20340;-74
2022/08/30 06:28:07;;;;;;;2.75;1.35;;;;;;;;;;5053328;28;20308;-73
2022/08/30 06:30:33;;;;;;;3.10;1.60;;;;;;;;;;5050793;28;20218;-74
2022/08/30 06:33:01;;;;;;;3.63;1.52;;;;;;;;;;5066310;28;20210;-76
2022/08/30 06:35:27;;;;;;;2.60;1.50;;;;;;;;;;5057676;28;20313;-72
2022/08/30 06:37:53;;;;;;;2.22;1.83;;;;;;;;;;5069372;28;20206;-73
2022/08/30 06:40:22;;;;;;;1.48;1.38;;;;;;;;;;5070464;28;20217;-71
2022/08/30 06:42:48;;;;;;;2.78;1.60;;;;;;;;;;5062261;28;20233;-70
2022/08/30 06:45:41;;;;;;;1.85;1.73;;;;;;;;;;5048940;28;20227;-72
2022/08/30 06:48:07;;;;;;;2.33;1.50;;;;;;;;;;5066088;28;20643;-70
2022/08/30 06:50:35;;;;;;;1.98;1.70;;;;;;;;;;5060294;28;20281;-71
2022/08/30 06:53:04;;;;;;;4.70;1.60;;;;;;;;;;5042419;28;20223;-70
2022/08/30 06:55:32;;;;;;;1.70;1.60;;;;;;;;;;5051462;28;20215;-70
2022/08/30 06:57:59;;;;;;;5.13;1.80;;;;;;;;;;5043943;28;20221;-71
2022/08/30 07:00:25;;;;;;;4.00;1.63;;;;;;;;;;5061443;28;20259;-71
2022/08/30 07:02:50;;;;;;;1.77;1.33;;;;;;;;;;5048141;28;20230;-72
2022/08/30 07:05:16;;;;;;;2.47;1.75;;;;;;;;;;5043966;28;21235;-71
2022/08/30 07:07:45;;;;;;;3.05;1.70;;;;;;;;;;5059179;28;20223;-71
2022/08/30 07:10:10;;;;;;;1.88;1.63;;;;;;;;;;5049312;28;20280;-72
2022/08/30 07:12:36;;;;;;;2.85;1.73;;;;;;;;;;5070753;28;20325;-71
2022/08/30 07:15:03;;;;;;;2.30;1.50;;;;;;;;;;5049544;28;20233;-72
2022/08/30 07:20:38;;;;;;;2.95;2.03;;;;;;;;;;5070055;28;20233;-71
2022/08/30 07:23:04;;;;;;;2.80;2.08;;;;;;;;;;5043574;28;20223;-72
2022/08/30 07:25:32;;;;;;;3.55;1.98;;;;;;;;;;5041776;28;20222;-71
2022/08/30 07:27:58;;;;;;;3.13;1.45;;;;;;;;;;5056469;28;20223;-72
2022/08/30 07:30:23;;;;;;;3.42;1.63;;;;;;;;;;5071509;28;20228;-73
2022/08/30 07:32:49;;;;;;;3.50;1.42;;;;;;;;;;5072141;28;20222;-71
2022/08/30 07:35:16;;;;;;;3.22;1.60;;;;;;;;;;5055712;28;20340;-71
2022/08/30 07:37:41;;;;;;;1.95;1.38;;;;;;;;;;5031726;28;20222;-71
2022/08/30 07:40:10;;;;;;;2.58;1.30;;;;;;;;;;5051356;28;20217;-71
2022/08/30 07:42:39;;;;;;;1.48;1.38;;;;;;;;;;5059402;28;20855;-73
2022/08/30 07:45:07;;;;;;;3.33;1.48;;;;;;;;;;5066323;28;20229;-72
2022/08/30 07:47:32;;;;;;;3.38;1.65;;;;;;;;;;5063634;28;20226;-71
2022/08/30 07:49:59;;;;;;;2.53;1.38;;;;;;;;;;5043304;28;20214;-71
2022/08/30 07:52:27;;;;;;;1.63;1.50;;;;;;;;;;5076613;28;20229;-73
2022/08/30 07:54:55;;;;;;;1.65;1.30;;;;;;;;;;5050861;28;20226;-71
2022/08/30 07:57:24;;;;;;;2.53;1.40;;;;;;;;;;5047621;28;20659;-73
2022/08/30 07:59:50;;;;;;;1.35;1.02;;;;;;;;;;5051469;28;20215;-72
2022/08/30 08:02:16;;;;;;;1.13;1.02;;;;;;;;;;5059850;28;20222;-72
2022/08/30 08:04:41;;;;;;;1.48;1.10;;;;;;;;;;5066761;28;20237;-71
2022/08/30 08:07:07;;;;;;;1.27;0.98;;;;;;;;;;5049491;28;20233;-72
2022/08/30 08:09:32;;;;;;;1.98;1.10;;;;;;;;;;5030649;28;20257;-72
2022/08/30 08:11:58;;;;;;;1.15;0.85;;;;;;;;;;5043617;28;20595;-72
2022/08/30 08:14:27;;;;;;;3.33;0.90;;;;;;;;;;5062241;28;20237;-72
2022/08/30 08:16:53;;;;;;;2.20;1.00;;;;;;;;;;5063691;28;20217;-73
2022/08/30 08:19:19;;;;;;;3.08;1.02;;;;;;;;;;5058058;28;20221;-72
2022/08/30 08:21:44;;;;;;;0.77;0.70;;;;;;;;;;5051134;28;20228;-72
2022/08/30 08:24:10;;;;;;;1.23;0.90;;;;;;;;;;5079366;28;20226;-71
2022/08/30 08:26:36;;;;;;;1.10;0.93;;;;;;;;;;5050959;28;20324;-71
2022/08/30 08:29:06;;;;;;;1.20;0.90;;;;;;;;;;5048954;28;20227;-73
2022/08/30 08:31:37;;;;;;;1.08;0.95;;;;;;;;;;5041561;28;20222;-71
2022/08/30 08:34:05;;;;;;;2.25;0.90;;;;;;;;;;5051233;28;20734;-71
2022/08/30 08:36:31;;;;;;;0.70;0.70;;;;;;;;;;5063382;28;20345;-71
2022/08/30 08:39:00;;;;;;;1.17;0.65;;;;;;;;;;5075193;28;20234;-71
2022/08/30 08:41:31;;;;;;;0.70;0.70;;;;;;;;;;5050588;28;20231;-71
2022/08/30 08:43:59;;;;;;;1.40;0.75;;;;;;;;;;5072856;28;20231;-70
2022/08/30 08:46:30;;;;;;;3.78;0.70;;;;;;;;;;5060512;28;20257;-70
2022/08/30 08:48:57;;;;;;;1.35;0.70;;;;;;;;;;5071483;28;20240;-70
2022/08/30 08:54:23;;;;;;;0.80;0.80;;;;;;;;;;5072673;28;20233;-70
2022/08/30 08:56:49;;;;;;;2.97;0.90;;;;;;;;;;5063953;28;20219;-71
2022/08/30 08:59:20;;;;;;;0.73;0.73;;;;;;;;;;5041802;28;20276;-70
2022/08/30 09:01:45;;;;;;;0.77;0.77;;;;;;;;;;5066090;28;20395;-71
2022/08/30 09:04:14;;;;;;;1.63;0.90;;;;;;;;;;5046227;28;20238;-71
2022/08/30 09:07:03;;;;;;;0.80;0.65;;;;;;;;;;5056326;28;20219;-71
2022/08/30 09:09:31;;;;;;;1.45;0.90;;;;;;;;;;5042167;28;20248;-71
2022/08/30 09:11:56;;;;;;;1.58;0.90;;;;;;;;;;5055775;28;20234;-72
2022/08/30 09:14:25;;;;;;;1.77;1.40;;;;;;;;;;5076689;28;20226;-70
2022/08/30 09:17:02;;;;;;;3.17;1.55;;;;;;;;;;5044632;28;20219;-71
2022/08/30 09:19:29;;;;;;;1.40;1.17;;;;;;;;;;5023182;28;20230;-71
2022/08/30 09:22:05;;;;;;;1.48;1.10;;;;;;;;;;5059948;28;20618;-71
2022/08/30 09:24:39;;;;;;;2.25;1.98;;;;;;;;;;5065061;28;20235;-70
2022/08/30 09:27:15;;;;;;;2.47;2.22;;;;;;;;;;5041066;28;20219;-72
2022/08/30 09:29:56;;;;;;;2.88;2.20;;;;;;;;;;5040355;28;20245;-71
2022/08/30 09:32:25;;;;;;;3.60;2.20;;;;;;;;;;5041264;28;20224;-71
2022/08/30 09:34:51;;;;;;;2.85;2.65;;;;;;;;;;5049150;28;20229;-71
2022/08/30 09:37:45;;;;;;;3.97;2.80;;;;;;;;;;5057693;28;21043;-70
2022/08/30 09:40:20;;;;;;;3.58;2.55;;;;;;;;;;5061278;28;20268;-72
2022/08/30 09:43:01;;;;;;;2.13;2.03;;;;;;;;;;5031871;28;20226;-71
2022/08/30 09:45:30;;;;;;;2.90;1.83;;;;;;;;;;5022417;28;20230;-70
2022/08/30 09:47:56;;;;;;;1.60;1.50;;;;;;;;;;5022278;28;20281;-71
2022/08/30 09:50:22;;;;;;;2.90;2.20;;;;;;;;;;5045976;28;20262;-72
2022/08/30 09:52:59;;;;;;;3.65;3.30;;;;;;;;;;5048413;28;20226;-70
2022/08/30 09:56:00;;;;;;;4.03;3.20;;;;;;;;;;5048772;28;20234;-70
2022/08/30 09:58:44;;;;;;;2.60;2.40;;;;;;;;;;5065191;28;20233;-70
2022/08/30 10:01:22;;;;;;;3.35;2.80;;;;;;;;;;5094489;28;20241;-71
2022/08/30 10:04:17;;;;;;;3.38;3.08;;;;;;;;;;5052502;28;20236;-71
2022/08/30 10:07:29;;;;;;;5.10;3.78;;;;;;;;;;5050830;28;20309;-71
2022/08/30 10:10:09;;;;;;;5.22;4.72;;;;;;;;;;5034853;28;20663;-71
2022/08/30 10:12:59;;;;;;;4.88;4.43;;;;;;;;;;5061055;28;20298;-72
2022/08/30 10:15:29;;;;;;;3.03;2.40;;;;;;;;;;5068612;28;20526;-70
2022/08/30 10:18:15;;;;;;;2.30;2.05;;;;;;;;;;5027008;28;20321;-70
2022/08/30 10:21:02;;;;;;;3.10;2.78;;;;;;;;;;5069030;28;20226;-69
2022/08/30 10:23:31;;;;;;;5.90;2.45;;;;;;;;;;5083661;28;20233;-70
2022/08/30 10:26:21;;;;;;;2.33;1.60;;;;;;;;;;5064085;28;20652;-70
2022/08/30 10:28:49;;;;;;;4.57;1.15;;;;;;;;;;5064577;28;20249;-71
2022/08/30 10:31:44;;;;;;;2.60;0.90;;;;;;;;;;5058645;28;20305;-72
2022/08/30 10:34:23;;;;;;;2.60;0.85;;;;;;;;;;5085019;28;20229;-71
2022/08/30 10:36:58;;;;;;;2.70;0.90;;;;;;;;;;5070360;28;20288;-71
2022/08/30 10:39:29;;;;;;;0.90;0.90;;;;;;;;;;5052424;28;20222;-71
2022/08/30 10:42:06;;;;;;;1.95;0.70;;;;;;;;;;5053104;28;20621;-72
2022/08/30 10:44:34;;;;;;;0.80;0.75;;;;;;;;;;5036754;28;20227;-70
2022/08/30 10:47:30;;;;;;;0.75;0.75;;;;;;;;;;5048745;28;20339;-70
2022/08/30 10:50:17;;;;;;;0.70;0.70;;;;;;;;;;5073088;28;20313;-70
2022/08/30 10:53:10;;;;;;;1.85;0.77;;;;;;;;;;5082985;28;20275;-70
2022/08/30 10:55:44;;;;;;;0.60;0.60;;;;;;;;;;5068875;28;21276;-70
2022/08/30 10:58:09;;;;;;;1.60;0.60;;;;;;;;;;5032700;28;20214;-72
2022/08/30 11:00:55;;;;;;;0.88;0.70;;;;;;;;;;5027871;28;20246;-71
2022/08/30 11:03:35;;;;;;;0.93;0.60;;;;;;;;;;5060808;28;20219;-70
2022/08/30 11:06:27;;;;;;;1.33;0.80;;;;;;;;;;5050805;28;20372;-71
2022/08/30 11:09:11;;;;;;;0.63;0.60;;;;;;;;;;5058571;28;20226;-69
2022/08/30 11:12:03;;;;;;;0.95;0.80;;;;;;;;;;5059141;28;20233;-70
2022/08/30 11:14:31;;;;;;;0.98;0.63;;;;;;;;;;5081377;28;20226;-70
2022/08/30 11:16:59;;;;;;;0.80;0.70;;;;;;;;;;5032437;28;20232;-71
2022/08/30 11:19:33;;;;;;;2.42;0.80;;;;;;;;;;5044538;28;20233;-72
2022/08/30 11:22:12;;;;;;;0.60;0.60;;;;;;;;;;5068832;28;20706;-71
2022/08/30 11:25:09;;;;;;;1.05;0.60;;;;;;;;;;5084593;28;20226;-71
2022/08/30 11:27:47;;;;;;;2.70;0.80;;;;;;;;;;5077769;28;20230;-71
2022/08/30 11:30:25;;;;;;;1.50;0.70;;;;;;;;;;5068180;28;20214;-67
2022/08/30 11:33:10;;;;;;;0.70;0.70;;;;;;;;;;5080441;28;20234;-69
2022/08/30 11:35:39;;;;;;;4.18;0.95;;;;;;;;;;5049249;28;20231;-71
2022/08/30 11:38:24;;;;;;;1.95;0.77;;;;;;;;;;5043983;28;20223;-70
2022/08/30 11:40:57;;;;;;;1.67;0.70;;;;;;;;;;5055791;28;20251;-71
2022/08/30 11:43:32;;;;;;;0.70;0.70;;;;;;;;;;5078604;28;20218;-70
2022/08/30 11:46:13;;;;;;;1.45;0.70;;;;;;;;;;5078735;28;20243;-70
2022/08/30 11:48:44;;;;;;;1.63;0.65;;;;;;;;;;5051727;28;20248;-71
2022/08/30 11:51:19;;;;;;;0.93;0.52;;;;;;;;;;5053130;28;21087;-70
2022/08/30 11:54:28;;;;;;;0.60;0.60;;;;;;;;;;5058013;28;20230;-73
2022/08/30 11:57:17;;;;;;;1.15;0.68;;;;;;;;;;5077274;28;20313;-69
2022/08/30 11:59:52;;;;;;;0.60;0.60;;;;;;;;;;5047065;28;20614;-69
2022/08/30 12:02:58;;;;;;;0.95;0.65;;;;;;;;;;5076069;28;20211;-71
2022/08/30 12:05:43;;;;;;;2.05;0.70;;;;;;;;;;5060647;28;20230;-71
2022/08/30 12:08:32;;;;;;;0.95;0.60;;;;;;;;;;5079050;28;21002;-71
2022/08/30 12:11:09;;;;;;;0.88;0.57;;;;;;;;;;5057529;28;20242;-70
2022/08/30 12:13:38;;;;;;;0.45;0.45;;;;;;;;;;5080112;28;20214;-71
2022/08/30 12:16:10;;;;;;;1.30;0.70;;;;;;;;;;5076565;28;20245;-71
2022/08/30 12:18:44;;;;;;;0.60;0.60;;;;;;;;;;5093375;28;20238;-71
2022/08/30 12:21:19;;;;;;;0.93;0.50;;;;;;;;;;5060876;28;20317;-70
2022/08/30 12:23:50;;;;;;;0.40;0.40;;;;;;;;;;5093069;28;20217;-70
2022/08/30 12:26:28;;;;;;;0.65;0.60;;;;;;;;;;5075258;28;20218;-71
2022/08/30 12:29:32;;;;;;;0.60;0.50;;;;;;;;;;5075175;28;20284;-71
2022/08/30 12:32:13;;;;;;;0.30;0.30;;;;;;;;;;4994285;28;20309;-71
2022/08/30 12:34:39;;;;;;;1.08;0.90;;;;;;;;;;4974569;28;20275;-71
2022/08/30 12:37:07;;;;;;;0.63;0.50;;;;;;;;;;5034821;28;20231;-72
2022/08/30 12:39:36;;;;;;;1.33;0.52;;;;;;;;;;5058162;28;20219;-70
2022/08/30 12:42:25;;;;;;;2.00;0.70;;;;;;;;;;5061254;28;20221;-71
2022/08/30 12:44:55;;;;;;;2.55;0.57;;;;;;;;;;5062223;28;20318;-71
2022/08/30 12:47:54;;;;;;;0.60;0.60;;;;;;;;;;5026327;28;20229;-71
2022/08/30 12:50:23;;;;;;;0.40;0.40;;;;;;;;;;5036585;28;20303;-72
2022/08/30 12:53:03;;;;;;;0.95;0.50;;;;;;;;;;5065290;28;20341;-70
2022/08/30 12:55:32;;;;;;;2.22;0.65;;;;;;;;;;5031625;28;20227;-72
2022/08/30 12:58:08;;;;;;;2.58;0.50;;;;;;;;;;5041570;28;20239;-71
2022/08/30 13:00:40;;;;;;;0.73;0.50;;;;;;;;;;5056881;28;20218;-71
2022/08/30 13:03:24;;;;;;;0.50;0.47;;;;;;;;;;5043527;28;20654;-69
2022/08/30 13:05:50;;;;;;;0.80;0.40;;;;;;;;;;5091732;28;20227;-71
2022/08/30 13:08:19;;;;;;;1.02;0.60;;;;;;;;;;5062144;28;20663;-71
2022/08/30 13:10:57;;;;;;;0.40;0.40;;;;;;;;;;5064836;28;20613;-71
2022/08/30 13:13:30;;;;;;;0.80;0.50;;;;;;;;;;5082287;28;20228;-72
2022/08/30 13:16:09;;;;;;;0.82;0.50;;;;;;;;;;5062066;28;20245;-70
2022/08/30 13:18:34;;;;;;;0.40;0.40;;;;;;;;;;5021107;28;20227;-70
2022/08/30 13:21:26;;;;;;;0.75;0.50;;;;;;;;;;5068865;28;20657;-71
2022/08/30 13:23:58;;;;;;;0.50;0.50;;;;;;;;;;5051137;28;20238;-73
2022/08/30 13:26:24;;;;;;;2.03;0.60;;;;;;;;;;5059685;28;20230;-71
2022/08/30 13:28:57;;;;;;;2.70;0.70;;;;;;;;;;5044881;28;20242;-70
2022/08/30 13:31:26;;;;;;;1.40;0.70;;;;;;;;;;5044530;28;20237;-70
2022/08/30 13:33:55;;;;;;;1.70;0.60;;;;;;;;;;5056155;28;20230;-71
2022/08/30 13:36:23;;;;;;;1.05;0.50;;;;;;;;;;5033248;28;20241;-69
2022/08/30 13:38:49;;;;;;;0.63;0.63;;;;;;;;;;5060537;28;20234;-70
2022/08/30 13:41:19;;;;;;;0.57;0.57;;;;;;;;;;5031293;28;20221;-70
2022/08/30 13:43:46;;;;;;;4.13;0.90;;;;;;;;;;5076487;28;20300;-70
2022/08/30 13:46:13;;;;;;;1.40;0.60;;;;;;;;;;5062621;28;20218;-69
2022/08/30 13:48:39;;;;;;;0.50;0.50;;;;;;;;;;5040533;28;21186;-72
2022/08/30 13:51:05;;;;;;;0.85;0.70;;;;;;;;;;5061612;28;20215;-70
2022/08/30 13:53:30;;;;;;;0.60;0.60;;;;;;;;;;5046875;28;20976;-69
2022/08/30 13:55:56;;;;;;;1.58;0.68;;;;;;;;;;5044782;28;20227;-70
2022/08/30 13:58:21;;;;;;;1.02;0.50;;;;;;;;;;5074016;28;20214;-71
2022/08/30 14:00:48;;;;;;;0.70;0.55;;;;;;;;;;5043325;28;20768;-70
2022/08/30 14:03:19;;;;;;;1.23;0.63;;;;;;;;;;5083002;28;20218;-71
2022/08/30 14:05:45;;;;;;;2.90;0.50;;;;;;;;;;5049202;28;20332;-69
2022/08/30 14:08:12;;;;;;;0.60;0.60;;;;;;;;;;5061888;28;20232;-71
2022/08/30 14:10:38;;;;;;;2.63;0.80;;;;;;;;;;5042827;28;20238;-70
2022/08/30 14:13:04;;;;;;;1.70;0.60;;;;;;;;;;5051417;28;20570;-71
2022/08/30 14:15:31;;;;;;;0.40;0.40;;;;;;;;;;5075566;28;20257;-70
2022/08/30 14:17:56;;;;;;;0.75;0.57;;;;;;;;;;5044681;28;20257;-71
2022/08/30 14:20:22;;;;;;;0.55;0.55;;;;;;;;;;5059005;28;20923;-70
2022/08/30 14:22:48;;;;;;;0.82;0.70;;;;;;;;;;5050263;28;20724;-72
2022/08/30 14:25:17;;;;;;;0.50;0.50;;;;;;;;;;5052003;28;20234;-70
2022/08/30 14:27:43;;;;;;;1.52;0.45;;;;;;;;;;5053346;28;20254;-70
2022/08/30 14:30:11;;;;;;;1.70;0.52;;;;;;;;;;5042704;28;20251;-69
2022/08/30 14:32:37;;;;;;;1.50;0.77;;;;;;;;;;5054399;28;20898;-70
2022/08/30 14:35:03;;;;;;;1.30;0.68;;;;;;;;;;5018483;28;20658;-71
2022/08/30 14:37:28;;;;;;;0.85;0.60;;;;;;;;;;5045638;28;20251;-70
2022/08/30 14:39:54;;;;;;;0.60;0.60;;;;;;;;;;5058717;28;20277;-71
2022/08/30 14:42:22;;;;;;;0.95;0.68;;;;;;;;;;5066219;28;20273;-71
2022/08/30 14:44:48;;;;;;;1.27;0.63;;;;;;;;;;5050732;28;20296;-72
2022/08/30 14:47:13;;;;;;;2.42;0.70;;;;;;;;;;5077588;28;20226;-71
2022/08/30 14:49:41;;;;;;;0.70;0.70;;;;;;;;;;5086289;28;20234;-71
2022/08/30 14:52:07;;;;;;;1.00;0.70;;;;;;;;;;5080097;28;20710;-72
2022/08/30 14:54:35;;;;;;;3.35;0.90;;;;;;;;;;5083273;28;20226;-72
2022/08/30 14:57:00;;;;;;;1.92;0.80;;;;;;;;;;5080553;28;20226;-72
2022/08/30 14:59:26;;;;;;;0.95;0.60;;;;;;;;;;5046242;28;20221;-71
2022/08/30 15:01:52;;;;;;;0.90;0.60;;;;;;;;;;5047641;28;20609;-71
2022/08/30 15:04:20;;;;;;;2.13;0.75;;;;;;;;;;5057040;28;20218;-72
2022/08/30 15:06:46;;;;;;;1.20;0.70;;;;;;;;;;5030840;28;20230;-72
2022/08/30 15:09:13;;;;;;;0.98;0.65;;;;;;;;;;5024391;28;20222;-71